Time;durP1;ratioP1;P1;durP2;ratioP2;P2;SDS_P1;SDS_P2;PMS_P1;PMS_P2;Temp;Humidity;BMP_temperature;BMP_pressure;BME280_temperature;BME280_humidity;BME280_pressure;Samples;Min_cycle;Max_cycle;Signal;HPM_P1;HPM_P2
2023/06/16 00:01:08;;;;;;;9.63;8.70;;;14.60;99.90;;;;;;5038119;28;20040;-72
2023/06/16 00:03:34;;;;;;;14.70;9.35;;;14.70;99.90;;;;;;5058235;28;20048;-71
2023/06/16 00:06:29;;;;;;;10.63;9.25;;;14.60;99.90;;;;;;5062153;28;20693;-71
2023/06/16 00:08:55;;;;;;;10.57;9.48;;;14.60;99.90;;;;;;5055641;28;20129;-72
2023/06/16 00:11:22;;;;;;;10.10;9.13;;;14.50;99.90;;;;;;5048006;28;20106;-71
2023/06/16 00:13:49;;;;;;;10.88;9.20;;;14.60;99.90;;;;;;5045430;28;20044;-70
2023/06/16 00:16:19;;;;;;;10.63;9.27;;;14.50;99.90;;;;;;5050645;28;20067;-71
2023/06/16 00:18:51;;;;;;;9.35;8.45;;;14.50;99.90;;;;;;5095586;28;20051;-68
2023/06/16 00:21:29;;;;;;;9.88;8.88;;;14.60;99.90;;;;;;5065155;28;20384;-72
2023/06/16 00:23:55;;;;;;;9.45;8.55;;;14.60;99.90;;;;;;5075435;28;20045;-70
2023/06/16 00:26:22;;;;;;;9.73;8.82;;;14.60;99.90;;;;;;5065071;28;20101;-73
2023/06/16 00:28:48;;;;;;;10.18;9.18;;;14.50;99.90;;;;;;5066970;28;20044;-73
2023/06/16 00:31:15;;;;;;;9.77;8.88;;;14.50;99.90;;;;;;5056104;28;20386;-70
2023/06/16 00:33:41;;;;;;;8.77;7.95;;;14.50;99.90;;;;;;5051701;28;20440;-71
2023/06/16 00:36:06;;;;;;;9.98;8.88;;;14.50;99.90;;;;;;5039453;28;20040;-69
2023/06/16 00:38:33;;;;;;;9.13;8.30;;;14.50;99.90;;;;;;5055204;28;20409;-70
2023/06/16 00:41:00;;;;;;;9.65;8.65;;;14.60;99.90;;;;;;5057060;28;20393;-70
2023/06/16 00:43:25;;;;;;;14.48;9.20;;;14.70;99.90;;;;;;5042846;28;20045;-70
2023/06/16 00:45:51;;;;;;;10.48;9.40;;;14.70;99.90;;;;;;5058253;28;20036;-71
2023/06/16 00:48:18;;;;;;;10.23;9.23;;;14.70;99.90;;;;;;5054358;28;20043;-72
2023/06/16 00:50:45;;;;;;;11.20;8.63;;;14.70;99.90;;;;;;5041324;28;20095;-69
2023/06/16 00:53:11;;;;;;;11.23;9.45;;;14.70;99.90;;;;;;5064057;28;20053;-73
2023/06/16 00:55:37;;;;;;;12.63;9.23;;;14.70;99.90;;;;;;5034184;28;20047;-70
2023/06/16 00:58:03;;;;;;;11.60;9.80;;;14.80;99.90;;;;;;5059351;28;20044;-69
2023/06/16 01:00:32;;;;;;;10.07;8.85;;;14.80;99.90;;;;;;5043747;28;20493;-74
2023/06/16 01:02:57;;;;;;;11.60;9.93;;;14.70;99.90;;;;;;5061141;28;20032;-71
2023/06/16 01:05:24;;;;;;;10.05;9.02;;;14.70;99.90;;;;;;5065155;28;20082;-70
2023/06/16 01:08:01;;;;;;;10.40;9.30;;;14.70;99.90;;;;;;5055215;28;20481;-68
2023/06/16 01:10:59;;;;;;;10.80;9.70;;;14.80;99.90;;;;;;5089595;28;20043;-68
2023/06/16 01:13:37;;;;;;;11.43;9.68;;;14.90;99.90;;;;;;5040477;28;20064;-71
2023/06/16 01:16:07;;;;;;;10.35;9.05;;;14.90;99.90;;;;;;5058030;28;20040;-71
2023/06/16 01:18:33;;;;;;;10.45;9.38;;;14.80;99.90;;;;;;5051404;28;20094;-72
2023/06/16 01:21:17;;;;;;;10.13;9.13;;;14.80;99.90;;;;;;5068731;28;20044;-70
2023/06/16 01:23:58;;;;;;;10.77;9.25;;;14.90;99.90;;;;;;5048515;28;20131;-69
2023/06/16 01:26:27;;;;;;;9.50;8.70;;;14.80;99.90;;;;;;5064409;28;20043;-71
2023/06/16 01:28:54;;;;;;;10.55;9.55;;;14.80;99.90;;;;;;5044869;28;20047;-71
2023/06/16 01:31:21;;;;;;;10.43;9.40;;;14.90;99.90;;;;;;5051432;28;20063;-76
2023/06/16 01:33:48;;;;;;;12.20;10.55;;;14.80;99.90;;;;;;5057096;28;20040;-75
2023/06/16 01:36:16;;;;;;;10.80;9.68;;;14.80;99.90;;;;;;5050345;28;20041;-68
2023/06/16 01:38:43;;;;;;;12.32;10.73;;;14.70;99.90;;;;;;5059160;28;20070;-74
2023/06/16 01:41:10;;;;;;;12.15;10.95;;;14.60;99.90;;;;;;5039908;28;20052;-72
2023/06/16 01:43:36;;;;;;;11.60;10.40;;;14.50;99.90;;;;;;5036748;28;20045;-74
2023/06/16 01:46:02;;;;;;;12.00;10.60;;;14.50;99.90;;;;;;5048313;28;20102;-73
2023/06/16 01:48:28;;;;;;;12.10;10.90;;;14.50;99.90;;;;;;5052258;28;20078;-72
2023/06/16 01:50:55;;;;;;;12.68;11.13;;;14.40;99.90;;;;;;5042838;28;20032;-71
2023/06/16 01:53:21;;;;;;;12.95;11.15;;;14.40;99.90;;;;;;5058624;28;20133;-70
2023/06/16 01:55:51;;;;;;;13.13;11.30;;;14.40;99.90;;;;;;5086394;28;20545;-72
2023/06/16 01:58:18;;;;;;;11.65;10.55;;;14.30;99.90;;;;;;5048621;28;20135;-71
2023/06/16 02:00:50;;;;;;;11.52;10.43;;;14.30;99.90;;;;;;5058562;28;20040;-73
2023/06/16 02:03:35;;;;;;;13.05;11.60;;;14.40;99.90;;;;;;5052660;28;20127;-69
2023/06/16 02:06:14;;;;;;;12.32;11.13;;;14.30;99.90;;;;;;5072614;28;20103;-68
2023/06/16 02:08:42;;;;;;;12.50;11.20;;;14.30;99.90;;;;;;5058201;28;20053;-71
2023/06/16 02:11:08;;;;;;;12.43;11.23;;;14.30;99.90;;;;;;5047563;28;20082;-73
2023/06/16 02:13:35;;;;;;;12.85;11.60;;;14.30;99.90;;;;;;5036478;28;20073;-72
2023/06/16 02:16:00;;;;;;;12.13;10.98;;;14.30;99.90;;;;;;5043250;28;20646;-72
2023/06/16 02:18:27;;;;;;;12.48;11.18;;;14.30;99.90;;;;;;5071266;28;20120;-75
2023/06/16 02:20:54;;;;;;;13.50;11.93;;;14.30;99.90;;;;;;5047862;28;20045;-70
2023/06/16 02:23:20;;;;;;;13.18;11.38;;;14.30;99.90;;;;;;5055098;28;20162;-70
2023/06/16 02:25:46;;;;;;;13.10;11.70;;;14.30;99.90;;;;;;5062080;28;20495;-74
2023/06/16 02:28:12;;;;;;;12.90;11.70;;;14.20;99.90;;;;;;5042948;28;20052;-71
2023/06/16 02:30:38;;;;;;;12.95;11.65;;;14.20;99.90;;;;;;5060794;28;20045;-72
2023/06/16 02:33:04;;;;;;;12.52;11.32;;;14.20;99.90;;;;;;5046864;28;20357;-75
2023/06/16 02:35:30;;;;;;;13.02;11.65;;;14.20;99.90;;;;;;5088126;28;20045;-75
2023/06/16 02:37:56;;;;;;;13.93;12.13;;;14.20;99.90;;;;;;5078626;28;20052;-70
2023/06/16 02:40:21;;;;;;;13.00;11.63;;;14.30;99.90;;;;;;5062780;28;20068;-70
2023/06/16 02:42:48;;;;;;;12.90;11.52;;;14.10;99.90;;;;;;5032592;28;20095;-70
2023/06/16 02:45:14;;;;;;;13.70;11.13;;;14.10;99.90;;;;;;5056831;28;20127;-73
2023/06/16 02:47:41;;;;;;;13.38;11.90;;;14.20;99.90;;;;;;5064745;28;20520;-73
2023/06/16 02:50:08;;;;;;;13.15;11.95;;;14.10;99.90;;;;;;5061763;28;20465;-76
2023/06/16 02:52:35;;;;;;;13.02;11.70;;;14.20;99.90;;;;;;5051457;28;20117;-74
2023/06/16 02:55:01;;;;;;;13.93;12.57;;;14.20;99.90;;;;;;5054440;28;20043;-74
2023/06/16 02:57:27;;;;;;;13.18;11.77;;;14.10;99.90;;;;;;5022040;28;20072;-71
2023/06/16 02:59:55;;;;;;;14.05;12.65;;;14.10;99.90;;;;;;5054445;28;20040;-71
2023/06/16 03:02:21;;;;;;;14.18;12.73;;;14.00;99.90;;;;;;5065623;28;20052;-75
2023/06/16 03:04:47;;;;;;;14.52;13.00;;;14.10;99.90;;;;;;5057068;28;20064;-76
2023/06/16 03:07:12;;;;;;;14.63;13.25;;;14.00;99.90;;;;;;5062834;28;20060;-71
2023/06/16 03:09:38;;;;;;;16.15;14.55;;;14.00;99.90;;;;;;5057817;28;20549;-71
2023/06/16 03:12:04;;;;;;;14.32;12.93;;;14.10;99.90;;;;;;5047367;28;20098;-74
2023/06/16 03:14:32;;;;;;;15.10;13.50;;;14.00;99.90;;;;;;5045830;28;20056;-72
2023/06/16 03:17:00;;;;;;;15.38;13.88;;;14.00;99.90;;;;;;5088536;28;20040;-73
2023/06/16 03:19:26;;;;;;;15.43;13.88;;;14.00;99.90;;;;;;5016066;28;20837;-73
2023/06/16 03:21:52;;;;;;;15.35;13.82;;;14.00;99.90;;;;;;5050015;28;20057;-72
2023/06/16 03:24:18;;;;;;;16.50;14.90;;;14.10;99.90;;;;;;5050700;28;20044;-75
2023/06/16 03:26:45;;;;;;;16.52;15.00;;;14.10;99.90;;;;;;5075844;28;20044;-71
2023/06/16 03:29:14;;;;;;;16.67;15.05;;;14.10;99.90;;;;;;5041246;28;20049;-75
2023/06/16 03:31:40;;;;;;;16.65;15.00;;;14.20;99.90;;;;;;5059636;28;20473;-72
2023/06/16 03:34:06;;;;;;;18.52;15.07;;;14.20;99.90;;;;;;5064558;28;20048;-70
2023/06/16 03:36:36;;;;;;;17.50;15.77;;;14.30;99.90;;;;;;5062050;28;20044;-71
2023/06/16 03:39:03;;;;;;;17.60;15.80;;;14.40;99.90;;;;;;5050741;28;20414;-74
2023/06/16 03:41:29;;;;;;;18.77;16.88;;;14.40;99.90;;;;;;5080175;28;20575;-73
2023/06/16 03:43:55;;;;;;;19.33;16.52;;;14.40;99.90;;;;;;5059559;28;20052;-73
2023/06/16 03:46:20;;;;;;;18.25;16.38;;;14.40;99.90;;;;;;5039753;28;20045;-71
2023/06/16 03:48:46;;;;;;;17.70;15.80;;;14.50;99.90;;;;;;5016518;28;20048;-71
2023/06/16 03:51:12;;;;;;;18.27;16.38;;;14.50;99.90;;;;;;5058037;28;20484;-71
2023/06/16 03:53:37;;;;;;;20.90;17.40;;;14.50;99.90;;;;;;5060042;28;20103;-75
2023/06/16 03:56:03;;;;;;;18.92;16.77;;;14.40;99.90;;;;;;5057096;28;20045;-70
2023/06/16 03:58:30;;;;;;;20.27;17.60;;;14.40;99.90;;;;;;5035849;28;20039;-73
2023/06/16 04:00:56;;;;;;;18.73;16.63;;;14.50;99.90;;;;;;5052624;28;20079;-73
2023/06/16 04:03:25;;;;;;;20.23;17.20;;;14.50;99.90;;;;;;5037157;28;20052;-70
2023/06/16 04:05:52;;;;;;;17.77;15.98;;;14.60;99.90;;;;;;5062283;28;20033;-75
2023/06/16 04:08:18;;;;;;;18.67;16.63;;;14.60;99.90;;;;;;5049911;28;20036;-73
2023/06/16 04:10:44;;;;;;;18.98;16.88;;;14.60;99.90;;;;;;5067729;28;20040;-71
2023/06/16 04:13:10;;;;;;;20.70;17.33;;;14.60;99.90;;;;;;5054520;28;20041;-75
2023/06/16 04:15:35;;;;;;;18.52;16.52;;;14.60;99.90;;;;;;5051094;28;20119;-69
2023/06/16 04:18:01;;;;;;;18.48;16.58;;;14.70;99.90;;;;;;5066937;28;20818;-72
2023/06/16 04:20:27;;;;;;;18.52;16.65;;;14.80;99.90;;;;;;5040838;28;20636;-71
2023/06/16 04:22:53;;;;;;;17.65;15.93;;;14.70;99.90;;;;;;5033616;28;20048;-72
2023/06/16 04:25:18;;;;;;;18.50;16.15;;;14.70;99.90;;;;;;5057265;28;20128;-72
2023/06/16 04:27:46;;;;;;;19.65;16.20;;;14.70;99.90;;;;;;5038709;28;20139;-74
2023/06/16 04:30:12;;;;;;;19.73;17.63;;;14.80;99.90;;;;;;5050711;28;20037;-75
2023/06/16 04:32:38;;;;;;;19.42;17.30;;;14.90;99.90;;;;;;5063376;28;20106;-71
2023/06/16 04:35:04;;;;;;;21.10;16.30;;;15.00;99.90;;;;;;5055198;28;20037;-74
2023/06/16 04:37:30;;;;;;;19.10;17.10;;;15.00;99.90;;;;;;5055115;28;20041;-73
2023/06/16 04:39:56;;;;;;;20.80;17.95;;;15.10;99.90;;;;;;5062004;28;20045;-71
2023/06/16 04:42:21;;;;;;;19.05;17.08;;;15.10;99.90;;;;;;5061914;28;20040;-74
2023/06/16 04:44:47;;;;;;;19.75;17.55;;;15.30;99.90;;;;;;5017981;28;20097;-71
2023/06/16 04:47:13;;;;;;;19.35;17.13;;;15.30;99.90;;;;;;5033442;28;20051;-74
2023/06/16 04:49:39;;;;;;;20.80;18.10;;;15.40;99.90;;;;;;5035064;28;20128;-69
2023/06/16 04:52:06;;;;;;;19.83;17.75;;;15.50;99.90;;;;;;5059091;28;20109;-73
2023/06/16 04:54:32;;;;;;;20.45;17.55;;;15.50;99.90;;;;;;5040636;28;20037;-72
2023/06/16 04:56:58;;;;;;;20.08;17.98;;;15.60;99.90;;;;;;5050350;28;20040;-76
2023/06/16 04:59:25;;;;;;;20.92;18.73;;;15.70;99.90;;;;;;5033204;28;20701;-75
2023/06/16 05:01:50;;;;;;;20.67;18.48;;;15.70;99.90;;;;;;5061188;28;20039;-72
2023/06/16 05:04:17;;;;;;;21.48;19.23;;;15.90;99.90;;;;;;5070282;28;20044;-73
2023/06/16 05:06:43;;;;;;;20.48;17.98;;;15.80;99.90;;;;;;5056463;28;20032;-70
2023/06/16 05:09:09;;;;;;;21.10;18.83;;;16.00;99.90;;;;;;5032815;28;20098;-72
2023/06/16 05:11:34;;;;;;;22.92;19.58;;;16.10;99.90;;;;;;5042249;28;20333;-74
2023/06/16 05:14:00;;;;;;;22.58;20.15;;;16.20;99.90;;;;;;5033258;28;20119;-71
2023/06/16 05:16:26;;;;;;;21.08;18.98;;;16.20;99.90;;;;;;5036619;28;20059;-73
2023/06/16 05:18:52;;;;;;;20.25;18.23;;;16.40;99.90;;;;;;5033509;28;20132;-69
2023/06/16 05:21:24;;;;;;;19.88;17.77;;;16.50;99.90;;;;;;5047546;28;20058;-69
2023/06/16 05:23:51;;;;;;;20.50;17.73;;;16.50;99.90;;;;;;5048004;28;20045;-75
2023/06/16 05:26:18;;;;;;;20.85;17.73;;;16.80;99.90;;;;;;5029227;28;20045;-75
2023/06/16 05:28:44;;;;;;;19.60;17.20;;;16.80;99.90;;;;;;5068264;28;20059;-70
2023/06/16 05:31:09;;;;;;;19.38;17.30;;;16.80;99.90;;;;;;5062710;28;20493;-71
2023/06/16 05:33:35;;;;;;;21.90;17.83;;;16.90;99.90;;;;;;5037072;28;20032;-72
2023/06/16 05:36:01;;;;;;;17.80;16.00;;;17.00;99.90;;;;;;5036136;28;20041;-73
2023/06/16 05:38:26;;;;;;;18.33;16.45;;;17.10;99.90;;;;;;5054334;28;20049;-73
2023/06/16 05:40:52;;;;;;;17.33;15.63;;;17.20;99.90;;;;;;5049958;28;20090;-74
2023/06/16 05:43:18;;;;;;;17.48;15.65;;;17.30;99.90;;;;;;5049990;28;20094;-74
2023/06/16 05:45:43;;;;;;;17.83;16.08;;;17.30;99.90;;;;;;5034927;28;20037;-73
2023/06/16 05:48:09;;;;;;;17.90;16.00;;;17.40;99.90;;;;;;5041877;28;20445;-73
2023/06/16 05:50:35;;;;;;;17.65;15.15;;;17.40;99.90;;;;;;5037221;28;20693;-70
2023/06/16 05:53:00;;;;;;;19.00;15.57;;;17.50;99.90;;;;;;5062732;28;20044;-72
2023/06/16 05:55:27;;;;;;;18.75;15.70;;;17.40;99.90;;;;;;5063253;28;20480;-76
2023/06/16 05:57:53;;;;;;;16.98;15.18;;;17.60;99.90;;;;;;5055764;28;20076;-74
2023/06/16 06:00:19;;;;;;;16.60;14.90;;;17.60;99.90;;;;;;5049152;28;20067;-72
2023/06/16 06:02:45;;;;;;;14.63;13.13;;;17.80;99.90;;;;;;5046826;28;20044;-74
2023/06/16 06:05:11;;;;;;;15.98;13.35;;;17.70;99.90;;;;;;5049512;28;20110;-73
2023/06/16 06:07:36;;;;;;;14.05;12.70;;;17.90;99.90;;;;;;5045166;28;20036;-71
2023/06/16 06:10:02;;;;;;;15.38;13.05;;;17.90;99.90;;;;;;5032664;28;20071;-72
2023/06/16 06:12:28;;;;;;;14.63;13.13;;;18.10;99.90;;;;;;5056420;28;20064;-74
2023/06/16 06:14:54;;;;;;;14.70;13.20;;;18.30;99.90;;;;;;5050720;28;20501;-76
2023/06/16 06:17:19;;;;;;;14.20;12.68;;;18.20;99.90;;;;;;5051301;28;20032;-75
2023/06/16 06:19:45;;;;;;;15.23;13.60;;;18.20;99.90;;;;;;5063743;28;20055;-74
2023/06/16 06:22:11;;;;;;;14.18;12.77;;;18.30;99.90;;;;;;5050176;28;20345;-73
2023/06/16 06:24:37;;;;;;;15.00;12.93;;;18.50;99.90;;;;;;5043002;28;20048;-72
2023/06/16 06:27:02;;;;;;;14.07;12.57;;;18.70;99.90;;;;;;5037222;28;20481;-75
2023/06/16 06:29:28;;;;;;;14.80;13.23;;;18.70;99.90;;;;;;5058031;28;20045;-74
2023/06/16 06:31:54;;;;;;;14.00;12.60;;;18.70;99.90;;;;;;5048153;28;20071;-75
2023/06/16 06:34:19;;;;;;;14.98;12.18;;;19.00;99.90;;;;;;5050930;28;20037;-73
2023/06/16 06:36:47;;;;;;;12.45;11.25;;;18.90;99.90;;;;;;5030868;28;20438;-75
2023/06/16 06:39:13;;;;;;;13.88;12.05;;;19.20;99.90;;;;;;5031481;28;20048;-70
2023/06/16 06:41:40;;;;;;;13.52;11.32;;;19.30;99.90;;;;;;5048015;28;20095;-71
2023/06/16 06:44:06;;;;;;;15.65;11.98;;;19.50;99.90;;;;;;5042385;28;20052;-73
2023/06/16 06:46:31;;;;;;;14.25;11.40;;;19.70;99.90;;;;;;5059627;28;20045;-70
2023/06/16 06:48:57;;;;;;;12.13;10.43;;;19.70;99.90;;;;;;5050628;28;20045;-71
2023/06/16 06:51:23;;;;;;;16.45;12.32;;;20.00;99.90;;;;;;5061110;28;20105;-70
2023/06/16 06:53:49;;;;;;;14.55;11.02;;;20.10;99.90;;;;;;5052942;28;20041;-71
2023/06/16 06:56:15;;;;;;;14.80;11.50;;;20.50;99.90;;;;;;5080009;28;20496;-71
2023/06/16 06:58:41;;;;;;;12.25;10.85;;;20.60;99.90;;;;;;5028963;28;20037;-70
2023/06/16 07:01:07;;;;;;;10.25;8.35;;;20.70;99.90;;;;;;5057267;28;20045;-72
2023/06/16 07:03:33;;;;;;;8.57;7.68;;;20.70;99.90;;;;;;5040938;28;20037;-70
2023/06/16 07:05:58;;;;;;;7.90;6.60;;;20.90;99.90;;;;;;5034999;28;20471;-72
2023/06/16 07:08:25;;;;;;;7.70;7.00;;;20.90;99.90;;;;;;5055144;28;20051;-70
2023/06/16 07:10:51;;;;;;;7.90;7.18;;;20.90;99.90;;;;;;5052682;28;20041;-72
2023/06/16 07:13:16;;;;;;;7.82;7.05;;;21.20;99.90;;;;;;5034619;28;20033;-72
2023/06/16 07:15:42;;;;;;;8.15;7.15;;;21.10;99.90;;;;;;5065273;28;20029;-74
2023/06/16 07:18:08;;;;;;;8.00;6.82;;;21.10;99.90;;;;;;5050389;28;20036;-74
2023/06/16 07:20:33;;;;;;;7.15;6.55;;;21.50;99.90;;;;;;5060807;28;20053;-73
2023/06/16 07:22:59;;;;;;;6.35;5.78;;;21.50;99.90;;;;;;5067103;28;20078;-75
2023/06/16 07:25:27;;;;;;;7.13;6.30;;;21.40;99.90;;;;;;5042298;28;20052;-71
2023/06/16 07:27:54;;;;;;;6.72;6.05;;;21.50;99.90;;;;;;5033846;28;22040;-74
2023/06/16 07:30:19;;;;;;;7.32;6.57;;;21.50;99.90;;;;;;5057601;28;20040;-71
2023/06/16 07:32:45;;;;;;;7.45;6.60;;;21.40;99.90;;;;;;5067333;28;20516;-72
2023/06/16 07:35:11;;;;;;;8.27;6.55;;;21.50;99.90;;;;;;5044216;28;20171;-76
2023/06/16 07:37:37;;;;;;;6.97;6.28;;;21.40;99.90;;;;;;5093344;28;20056;-76
2023/06/16 07:40:06;;;;;;;6.93;6.22;;;21.50;99.90;;;;;;5061922;28;20063;-73
2023/06/16 07:42:32;;;;;;;6.82;6.20;;;21.50;99.90;;;;;;5049675;28;20049;-72
2023/06/16 07:44:58;;;;;;;6.65;6.05;;;21.60;99.90;;;;;;5060151;28;20033;-71
2023/06/16 07:47:23;;;;;;;6.50;5.75;;;21.70;99.90;;;;;;5053775;28;20047;-73
2023/06/16 07:49:49;;;;;;;6.60;6.00;;;21.60;99.90;;;;;;5045305;28;20043;-71
2023/06/16 07:52:15;;;;;;;7.82;5.13;;;21.50;99.90;;;;;;5069935;28;20476;-70
2023/06/16 07:54:41;;;;;;;6.45;5.85;;;21.50;99.90;;;;;;5067056;28;20043;-75
2023/06/16 07:57:07;;;;;;;6.03;5.15;;;21.70;99.90;;;;;;5067687;28;20052;-69
2023/06/16 07:59:33;;;;;;;7.13;5.55;;;21.80;99.90;;;;;;5055252;28;20504;-69
2023/06/16 08:02:01;;;;;;;5.90;5.40;;;21.80;99.90;;;;;;5064902;28;20127;-70
2023/06/16 08:04:29;;;;;;;6.32;5.75;;;21.80;99.90;;;;;;5057173;28;20044;-70
2023/06/16 08:06:58;;;;;;;5.97;5.20;;;21.80;99.90;;;;;;5049824;28;20064;-69
2023/06/16 08:09:27;;;;;;;9.48;4.80;;;21.80;99.90;;;;;;5038131;28;20115;-72
2023/06/16 08:11:52;;;;;;;9.35;4.80;;;21.90;99.90;;;;;;5034079;28;20041;-71
2023/06/16 08:14:18;;;;;;;5.30;4.22;;;21.80;99.90;;;;;;5065823;28;20036;-72
2023/06/16 08:16:44;;;;;;;4.88;4.20;;;22.00;99.90;;;;;;5079498;28;20064;-71
2023/06/16 08:19:10;;;;;;;4.28;3.88;;;22.10;99.90;;;;;;5055714;28;20071;-71
2023/06/16 08:21:37;;;;;;;4.40;3.83;;;22.10;99.90;;;;;;5069615;28;20055;-73
2023/06/16 08:24:03;;;;;;;4.00;3.58;;;22.20;99.90;;;;;;5044635;28;20056;-74
2023/06/16 08:26:29;;;;;;;5.07;3.40;;;22.20;99.90;;;;;;5046757;28;20044;-72
2023/06/16 08:28:55;;;;;;;3.97;3.40;;;22.30;99.90;;;;;;5066684;28;20049;-72
2023/06/16 08:31:21;;;;;;;3.45;3.15;;;22.30;38.40;;;;;;5054510;28;20076;-72
2023/06/16 08:33:47;;;;;;;3.22;2.90;;;22.40;31.20;;;;;;5062006;28;20028;-72
2023/06/16 08:36:12;;;;;;;3.95;3.28;;;22.40;1.00;;;;;;5049922;28;20036;-71
2023/06/16 08:38:38;;;;;;;6.50;2.97;;;22.30;1.00;;;;;;5085537;28;20351;-69
2023/06/16 08:41:10;;;;;;;2.53;2.30;;;22.30;1.00;;;;;;5070197;28;20045;-71
2023/06/16 08:43:36;;;;;;;3.05;2.28;;;22.40;99.90;;;;;;5051028;28;20122;-71
2023/06/16 08:46:08;;;;;;;4.32;2.35;;;22.40;99.90;;;;;;5052574;28;20041;-72
2023/06/16 08:48:36;;;;;;;3.43;2.20;;;22.60;99.90;;;;;;5067517;28;20040;-72
2023/06/16 08:51:03;;;;;;;3.08;2.53;;;22.70;99.90;;;;;;5056144;28;20127;-74
2023/06/16 08:53:33;;;;;;;3.83;2.50;;;22.80;99.90;;;;;;5067854;28;20600;-70
2023/06/16 08:56:00;;;;;;;2.60;2.03;;;22.90;99.90;;;;;;5064686;28;20482;-70
2023/06/16 08:58:27;;;;;;;2.75;2.40;;;22.80;99.90;;;;;;5065888;28;20488;-70
2023/06/16 09:00:53;;;;;;;5.82;2.70;;;23.10;99.90;;;;;;5056086;28;20046;-71
2023/06/16 09:03:21;;;;;;;3.10;2.38;;;23.20;99.90;;;;;;5065190;28;20049;-72
2023/06/16 09:05:47;;;;;;;3.97;2.55;;;23.40;99.90;;;;;;5059898;28;20115;-71
2023/06/16 09:08:14;;;;;;;3.65;2.60;;;23.40;99.90;;;;;;5051886;28;20083;-70
2023/06/16 09:10:40;;;;;;;3.08;2.47;;;23.40;99.90;;;;;;5051201;28;20041;-71
2023/06/16 09:13:06;;;;;;;5.05;2.55;;;23.70;99.90;;;;;;5065902;28;20041;-73
2023/06/16 09:15:33;;;;;;;4.82;2.80;;;23.80;99.90;;;;;;5061739;28;20032;-71
2023/06/16 09:18:06;;;;;;;2.95;2.30;;;23.80;99.90;;;;;;5065632;28;20045;-72
2023/06/16 09:20:31;;;;;;;6.97;2.90;;;23.80;99.90;;;;;;5032738;28;20045;-69
2023/06/16 09:23:05;;;;;;;4.63;2.35;;;23.80;99.90;;;;;;5057510;28;20654;-68
2023/06/16 09:25:34;;;;;;;3.00;2.70;;;23.70;99.90;;;;;;5082488;28;20049;-71
2023/06/16 09:28:07;;;;;;;4.32;2.85;;;23.90;99.90;;;;;;5062575;28;20294;-74
2023/06/16 09:30:36;;;;;;;3.33;2.50;;;23.70;99.90;;;;;;5066155;28;20162;-69
2023/06/16 09:33:02;;;;;;;3.80;2.40;;;24.10;99.90;;;;;;5050981;28;20033;-70
2023/06/16 09:35:30;;;;;;;4.68;2.53;;;24.30;99.90;;;;;;5088900;28;20063;-69
2023/06/16 09:37:57;;;;;;;3.47;2.58;;;24.20;99.90;;;;;;5063830;28;20049;-72
2023/06/16 09:40:31;;;;;;;4.07;2.40;;;24.30;99.90;;;;;;5063790;28;20108;-72
2023/06/16 09:43:08;;;;;;;5.38;2.45;;;24.30;99.90;;;;;;5067176;28;20099;-73
2023/06/16 09:45:35;;;;;;;2.80;2.50;;;24.40;99.90;;;;;;5051362;28;20469;-70
2023/06/16 09:48:06;;;;;;;3.03;2.50;;;24.60;99.90;;;;;;5059016;28;20052;-72
2023/06/16 09:50:33;;;;;;;3.30;2.53;;;24.60;99.90;;;;;;5051374;28;20080;-69
2023/06/16 09:53:01;;;;;;;5.22;2.55;;;24.80;99.90;;;;;;5040762;28;20493;-71
2023/06/16 09:55:28;;;;;;;2.53;2.25;;;24.60;99.90;;;;;;5054905;28;20040;-72
2023/06/16 09:57:57;;;;;;;4.10;2.40;;;24.40;99.90;;;;;;5045695;28;20040;-72
2023/06/16 10:00:25;;;;;;;2.55;2.33;;;24.30;99.90;;;;;;5050647;28;20072;-72
2023/06/16 10:02:51;;;;;;;3.38;2.22;;;24.80;99.90;;;;;;5049409;28;20596;-71
2023/06/16 10:05:22;;;;;;;4.03;2.50;;;24.90;99.90;;;;;;5058494;28;20049;-72
2023/06/16 10:07:59;;;;;;;3.22;2.67;;;24.80;99.90;;;;;;5081391;28;20072;-72
2023/06/16 10:10:27;;;;;;;5.05;2.55;;;25.10;99.90;;;;;;5081334;28;20245;-70
2023/06/16 10:12:54;;;;;;;2.60;2.28;;;24.90;99.90;;;;;;5064348;28;20037;-74
2023/06/16 10:15:25;;;;;;;4.03;2.20;;;25.10;99.90;;;;;;5090100;28;20091;-70
2023/06/16 10:17:53;;;;;;;5.40;2.40;;;25.20;99.90;;;;;;5088912;27;20048;-72
2023/06/16 10:20:23;;;;;;;3.00;2.17;;;25.20;99.90;;;;;;5060711;28;20047;-71
2023/06/16 10:22:50;;;;;;;2.75;2.40;;;24.80;83.90;;;;;;5067394;28;20112;-71
2023/06/16 10:25:18;;;;;;;2.33;2.13;;;24.80;94.70;;;;;;5048677;28;21731;-72
2023/06/16 10:27:45;;;;;;;3.85;2.17;;;25.10;99.20;;;;;;5054249;28;20136;-71
2023/06/16 10:30:16;;;;;;;2.83;2.17;;;25.10;90.70;;;;;;5065423;28;20487;-73
2023/06/16 10:32:55;;;;;;;5.70;2.30;;;25.10;98.30;;;;;;5067982;28;20036;-73
2023/06/16 10:35:22;;;;;;;2.40;2.20;;;25.20;96.70;;;;;;5065115;28;20471;-72
2023/06/16 10:37:55;;;;;;;3.05;2.20;;;25.40;99.90;;;;;;5058252;28;20032;-70
2023/06/16 10:40:23;;;;;;;2.92;2.65;;;25.20;74.10;;;;;;5052622;28;20190;-69
2023/06/16 10:42:55;;;;;;;2.80;2.40;;;25.20;95.00;;;;;;5057486;28;20040;-71
2023/06/16 10:45:28;;;;;;;2.92;2.15;;;25.70;99.90;;;;;;5047442;28;20059;-70
2023/06/16 10:48:11;;;;;;;3.28;2.33;;;25.60;99.90;;;;;;5049416;28;20580;-71
2023/06/16 10:50:40;;;;;;;4.85;2.20;;;25.50;99.90;;;;;;5065255;28;20069;-72
2023/06/16 10:53:11;;;;;;;3.05;2.00;;;25.60;72.40;;;;;;5056499;28;20520;-70
2023/06/16 10:55:41;;;;;;;4.82;2.28;;;25.20;78.40;;;;;;5047503;28;20086;-71
2023/06/16 10:58:16;;;;;;;4.20;2.20;;;25.40;90.50;;;;;;5047351;28;20052;-70
2023/06/16 11:01:02;;;;;;;2.40;2.20;;;25.50;90.70;;;;;;5087512;28;20037;-70
2023/06/16 11:03:34;;;;;;;2.50;2.30;;;25.70;56.20;;;;;;5079336;28;20377;-71
2023/06/16 11:06:01;;;;;;;5.22;2.70;;;25.60;72.60;;;;;;5065638;28;20040;-71
2023/06/16 11:08:30;;;;;;;2.75;2.10;;;25.80;53.90;;;;;;5052432;28;20166;-70
2023/06/16 11:11:02;;;;;;;2.80;2.28;;;25.70;46.40;;;;;;5047695;28;20425;-71
2023/06/16 11:13:35;;;;;;;2.75;2.30;;;25.40;1.00;;;;;;5050786;28;20049;-69
2023/06/16 11:16:01;;;;;;;3.30;2.40;;;25.90;33.40;;;;;;5053868;28;20041;-70
2023/06/16 11:18:33;;;;;;;2.28;2.08;;;25.50;10.20;;;;;;5056479;28;20108;-70
2023/06/16 11:21:01;;;;;;;4.07;2.40;;;25.50;1.00;;;;;;5083632;28;20367;-72
2023/06/16 11:23:27;;;;;;;2.50;2.30;;;25.30;1.00;;;;;;5051480;28;20703;-69
2023/06/16 11:26:15;;;;;;;2.50;2.30;;;25.50;1.00;;;;;;5060042;28;20047;-69
2023/06/16 11:28:42;;;;;;;3.30;2.40;;;25.50;1.00;;;;;;5088428;28;20044;-69
2023/06/16 11:31:09;;;;;;;5.70;2.65;;;25.50;1.00;;;;;;5048063;28;20041;-70
2023/06/16 11:33:35;;;;;;;2.80;2.33;;;25.70;1.00;;;;;;5056186;28;20485;-71
2023/06/16 11:36:20;;;;;;;2.42;2.20;;;25.70;1.00;;;;;;5052137;28;20080;-68
2023/06/16 11:38:52;;;;;;;4.47;2.63;;;25.80;1.00;;;;;;5090604;28;20132;-71
2023/06/16 11:41:22;;;;;;;3.35;2.55;;;25.50;1.00;;;;;;5065275;28;20043;-72
2023/06/16 11:43:50;;;;;;;2.60;2.30;;;25.60;1.00;;;;;;5062721;28;20621;-67
2023/06/16 11:46:20;;;;;;;3.72;2.50;;;25.70;1.00;;;;;;5054234;28;20094;-71
2023/06/16 11:48:46;;;;;;;2.75;2.30;;;25.50;1.00;;;;;;5059774;28;20044;-70
2023/06/16 11:51:13;;;;;;;2.45;2.25;;;25.70;1.00;;;;;;5057156;28;20051;-70
2023/06/16 11:53:40;;;;;;;2.53;2.28;;;25.90;1.00;;;;;;5061481;28;20041;-68
2023/06/16 11:56:13;;;;;;;3.10;2.30;;;25.90;1.00;;;;;;5057321;28;20097;-70
2023/06/16 11:58:40;;;;;;;3.00;2.40;;;25.80;1.00;;;;;;5067044;28;20087;-72
2023/06/16 12:01:06;;;;;;;3.00;2.78;;;25.70;1.00;;;;;;5055457;28;20129;-70
2023/06/16 12:03:35;;;;;;;3.17;2.13;;;25.70;1.00;;;;;;5069574;28;20044;-71
2023/06/16 12:06:02;;;;;;;2.42;2.10;;;25.80;1.00;;;;;;5060367;28;20869;-72
2023/06/16 12:08:45;;;;;;;3.28;2.33;;;25.60;1.00;;;;;;5067854;28;20041;-72
2023/06/16 12:11:16;;;;;;;3.47;2.40;;;26.10;1.00;;;;;;5047712;28;20526;-70
2023/06/16 12:13:42;;;;;;;2.65;2.45;;;25.90;1.00;;;;;;5069866;28;20041;-71
2023/06/16 12:16:11;;;;;;;2.85;2.30;;;25.90;1.00;;;;;;5044925;28;20128;-69
2023/06/16 12:18:36;;;;;;;2.95;2.45;;;25.90;1.00;;;;;;5084165;28;20040;-71
2023/06/16 12:21:15;;;;;;;3.63;2.47;;;26.10;1.00;;;;;;5076239;28;20045;-69
2023/06/16 12:23:40;;;;;;;3.30;2.30;;;25.90;1.00;;;;;;5053573;28;20045;-68
2023/06/16 12:26:07;;;;;;;2.97;2.40;;;26.10;1.00;;;;;;5066297;28;20090;-70
2023/06/16 12:28:35;;;;;;;2.80;2.25;;;25.50;1.00;;;;;;5082022;28;20393;-68
2023/06/16 12:31:01;;;;;;;2.53;2.20;;;25.40;1.00;;;;;;5062915;28;20048;-71
2023/06/16 12:33:27;;;;;;;4.60;2.50;;;25.80;1.00;;;;;;5043294;28;20107;-70
2023/06/16 12:35:54;;;;;;;3.13;2.03;;;25.80;1.00;;;;;;5057843;28;20123;-68
2023/06/16 12:38:32;;;;;;;3.95;2.65;;;25.80;1.00;;;;;;5054101;28;20048;-71
2023/06/16 12:40:57;;;;;;;4.30;2.30;;;25.90;1.00;;;;;;5042581;28;20593;-69